Time;durP1;ratioP1;P1;durP2;ratioP2;P2;SDS_P1;SDS_P2;PMS_P1;PMS_P2;Temp;Humidity;BMP_temperature;BMP_pressure;BME280_temperature;BME280_humidity;BME280_pressure;Samples;Min_cycle;Max_cycle;Signal;HPM_P1;HPM_P2
2023/04/07 00:00:03;;;;;;;66.10;10.03;;;;;;;;;;5071690;28;20451;-68
2023/04/07 00:02:32;;;;;;;68.00;9.83;;;;;;;;;;5071865;28;20447;-68
2023/04/07 00:04:59;;;;;;;68.70;10.53;;;;;;;;;;5071800;28;20706;-67
2023/04/07 00:07:26;;;;;;;65.80;10.20;;;;;;;;;;5071440;28;20950;-68
2023/04/07 00:09:53;;;;;;;65.53;10.90;;;;;;;;;;5071249;28;20456;-68
2023/04/07 00:12:20;;;;;;;67.23;11.27;;;;;;;;;;5071565;28;20461;-68
2023/04/07 00:14:47;;;;;;;65.23;9.73;;;;;;;;;;5071455;28;20826;-68
2023/04/07 00:17:14;;;;;;;66.50;9.93;;;;;;;;;;5070997;28;20482;-68
2023/04/07 00:19:43;;;;;;;71.37;11.13;;;;;;;;;;5068351;28;20554;-68
2023/04/07 00:22:10;;;;;;;66.87;11.50;;;;;;;;;;5071532;28;20444;-68
2023/04/07 00:24:37;;;;;;;66.40;10.97;;;;;;;;;;5071264;28;20459;-68
2023/04/07 00:27:05;;;;;;;67.77;10.50;;;;;;;;;;5071302;28;20439;-68
2023/04/07 00:29:32;;;;;;;67.80;10.30;;;;;;;;;;5070705;28;20494;-68
2023/04/07 00:31:59;;;;;;;68.57;11.60;;;;;;;;;;5071503;28;20440;-68
2023/04/07 00:34:26;;;;;;;65.67;10.13;;;;;;;;;;5071425;28;20439;-68
2023/04/07 00:36:55;;;;;;;67.57;10.37;;;;;;;;;;5071288;28;20506;-68
2023/04/07 00:39:22;;;;;;;66.23;10.33;;;;;;;;;;5070767;28;20507;-67
2023/04/07 00:41:50;;;;;;;65.97;9.32;;;;;;;;;;5071180;28;20462;-68
2023/04/07 00:44:17;;;;;;;64.10;9.10;;;;;;;;;;5070934;28;20205;-68
2023/04/07 00:46:44;;;;;;;68.20;9.90;;;;;;;;;;5071294;28;20830;-68
2023/04/07 00:49:12;;;;;;;69.10;10.60;;;;;;;;;;5070859;28;20493;-68
2023/04/07 00:51:39;;;;;;;67.57;11.05;;;;;;;;;;5068850;28;20463;-68
2023/04/07 00:54:07;;;;;;;64.93;9.75;;;;;;;;;;5071106;28;20212;-68
2023/04/07 00:56:35;;;;;;;68.33;10.90;;;;;;;;;;5070698;28;20229;-68
2023/04/07 00:59:03;;;;;;;65.28;9.30;;;;;;;;;;5070830;28;20502;-68
2023/04/07 01:01:32;;;;;;;65.10;9.53;;;;;;;;;;5071156;28;20206;-68
2023/04/07 01:04:02;;;;;;;65.10;9.02;;;;;;;;;;5071100;28;20447;-68
2023/04/07 01:06:32;;;;;;;68.20;9.93;;;;;;;;;;5074630;28;20205;-68
2023/04/07 01:09:02;;;;;;;66.60;9.98;;;;;;;;;;5074243;28;20535;-68
2023/04/07 01:11:33;;;;;;;69.63;9.40;;;;;;;;;;5074416;28;20235;-68
2023/04/07 01:14:00;;;;;;;68.30;9.93;;;;;;;;;;5074537;28;20453;-68
2023/04/07 01:16:30;;;;;;;66.53;9.40;;;;;;;;;;5074406;28;20489;-68
2023/04/07 01:18:58;;;;;;;65.50;8.90;;;;;;;;;;5074047;28;20963;-68
2023/04/07 01:21:27;;;;;;;65.17;8.90;;;;;;;;;;5074244;28;20231;-68
2023/04/07 01:24:04;;;;;;;65.10;10.00;;;;;;;;;;5061083;28;20880;-68
2023/04/07 01:26:33;;;;;;;66.53;10.00;;;;;;;;;;5054401;28;20483;-67
2023/04/07 01:29:15;;;;;;;63.92;8.57;;;;;;;;;;5053782;28;20238;-67
2023/04/07 01:31:45;;;;;;;68.07;9.57;;;;;;;;;;5045487;28;20216;-68
2023/04/07 01:34:13;;;;;;;66.87;9.50;;;;;;;;;;5054144;28;20448;-68
2023/04/07 01:36:40;;;;;;;63.70;8.77;;;;;;;;;;5054098;28;20860;-68
2023/04/07 01:39:08;;;;;;;65.05;9.40;;;;;;;;;;5054011;28;20495;-68
2023/04/07 01:41:35;;;;;;;64.68;9.65;;;;;;;;;;5053971;28;20255;-68
2023/04/07 01:44:03;;;;;;;64.60;8.63;;;;;;;;;;5053806;28;20206;-68
2023/04/07 01:46:30;;;;;;;65.57;9.80;;;;;;;;;;5054065;28;20591;-68
2023/04/07 01:48:59;;;;;;;65.88;8.95;;;;;;;;;;5053653;28;20225;-68
2023/04/07 01:51:27;;;;;;;65.82;10.25;;;;;;;;;;5053806;28;20266;-68
2023/04/07 01:53:54;;;;;;;63.80;8.90;;;;;;;;;;5053739;28;20609;-67
2023/04/07 01:56:21;;;;;;;64.82;9.10;;;;;;;;;;5067235;28;20225;-70
2023/04/07 01:58:48;;;;;;;66.47;9.60;;;;;;;;;;5073388;28;20233;-68
2023/04/07 02:01:16;;;;;;;68.13;9.40;;;;;;;;;;5073765;28;20451;-67
2023/04/07 02:03:45;;;;;;;67.10;9.90;;;;;;;;;;5073766;28;20826;-68
2023/04/07 02:06:15;;;;;;;65.95;8.90;;;;;;;;;;5074194;28;20439;-68
2023/04/07 02:08:43;;;;;;;67.03;9.52;;;;;;;;;;5073380;28;20594;-68
2023/04/07 02:11:12;;;;;;;66.47;8.93;;;;;;;;;;5073757;28;20213;-68
2023/04/07 02:13:39;;;;;;;64.80;8.95;;;;;;;;;;5073794;28;20231;-68
2023/04/07 02:16:07;;;;;;;66.55;9.43;;;;;;;;;;5072890;28;20235;-68
2023/04/07 02:18:35;;;;;;;64.75;9.13;;;;;;;;;;5073186;28;20243;-68
2023/04/07 02:21:02;;;;;;;65.03;9.15;;;;;;;;;;5073600;28;20673;-68
2023/04/07 02:23:31;;;;;;;64.78;8.98;;;;;;;;;;5073137;28;20311;-68
2023/04/07 02:25:58;;;;;;;66.78;10.02;;;;;;;;;;5073722;28;20553;-68
2023/04/07 02:28:25;;;;;;;67.25;9.27;;;;;;;;;;5070474;28;20229;-68
2023/04/07 02:30:52;;;;;;;63.95;9.32;;;;;;;;;;5073227;28;20213;-68
2023/04/07 02:33:20;;;;;;;67.90;9.77;;;;;;;;;;5073269;28;20205;-68
2023/04/07 02:35:47;;;;;;;65.78;9.50;;;;;;;;;;5073042;28;20275;-67
2023/04/07 02:38:14;;;;;;;63.90;8.90;;;;;;;;;;5072935;28;20232;-68
2023/04/07 02:40:42;;;;;;;66.32;9.73;;;;;;;;;;5073085;28;20521;-68
2023/04/07 02:43:09;;;;;;;68.03;10.32;;;;;;;;;;5072993;28;20216;-68
2023/04/07 02:45:36;;;;;;;65.60;9.10;;;;;;;;;;5073019;28;20296;-68
2023/04/07 02:48:04;;;;;;;66.65;10.20;;;;;;;;;;5072704;28;20473;-67
2023/04/07 02:50:31;;;;;;;66.03;9.50;;;;;;;;;;5072524;28;20205;-68
2023/04/07 02:52:58;;;;;;;66.57;9.63;;;;;;;;;;5073227;28;20205;-68
2023/04/07 02:55:25;;;;;;;67.55;10.20;;;;;;;;;;5073018;28;20209;-68
2023/04/07 02:57:53;;;;;;;65.30;9.65;;;;;;;;;;5072505;28;20240;-68
2023/04/07 03:00:21;;;;;;;67.75;9.60;;;;;;;;;;5070103;28;20201;-68
2023/04/07 03:02:48;;;;;;;65.50;9.57;;;;;;;;;;5072733;28;20207;-67
2023/04/07 03:05:15;;;;;;;65.95;10.38;;;;;;;;;;5072595;28;20462;-68
2023/04/07 03:07:42;;;;;;;66.45;10.10;;;;;;;;;;5072553;28;20701;-67
2023/04/07 03:10:09;;;;;;;67.72;10.98;;;;;;;;;;5072490;28;20209;-68
2023/04/07 03:12:37;;;;;;;67.85;11.55;;;;;;;;;;5072317;28;20673;-68
2023/04/07 03:15:06;;;;;;;67.65;10.40;;;;;;;;;;5072380;28;20201;-69
2023/04/07 03:17:33;;;;;;;68.53;10.63;;;;;;;;;;5072104;28;20243;-68
2023/04/07 03:20:01;;;;;;;74.28;11.48;;;;;;;;;;5071896;28;20215;-68
2023/04/07 03:22:28;;;;;;;68.20;10.77;;;;;;;;;;5072234;28;20240;-68
2023/04/07 03:24:55;;;;;;;69.00;11.05;;;;;;;;;;5071999;28;20971;-68
2023/04/07 03:27:22;;;;;;;65.65;9.40;;;;;;;;;;5071866;28;20197;-68
2023/04/07 03:29:50;;;;;;;68.18;10.60;;;;;;;;;;5071338;28;20201;-67
2023/04/07 03:32:18;;;;;;;68.60;11.73;;;;;;;;;;5069870;28;20270;-67
2023/04/07 03:34:45;;;;;;;67.32;10.23;;;;;;;;;;5072118;28;20205;-68
2023/04/07 03:37:12;;;;;;;67.10;11.07;;;;;;;;;;5071813;28;20279;-67
2023/04/07 03:39:39;;;;;;;69.57;12.18;;;;;;;;;;5071595;28;20205;-67
2023/04/07 03:42:07;;;;;;;69.05;11.55;;;;;;;;;;5071735;28;20275;-68
2023/04/07 03:44:34;;;;;;;68.18;10.93;;;;;;;;;;5071754;28;20586;-68
2023/04/07 03:47:01;;;;;;;69.07;10.80;;;;;;;;;;5071552;28;20197;-67
2023/04/07 03:49:30;;;;;;;67.10;9.98;;;;;;;;;;5071333;28;20236;-68
2023/04/07 03:51:57;;;;;;;70.28;11.75;;;;;;;;;;5071658;28;20258;-68
2023/04/07 03:54:24;;;;;;;72.65;11.40;;;;;;;;;;5071835;28;20209;-68
2023/04/07 03:56:52;;;;;;;68.05;10.95;;;;;;;;;;5071560;28;20316;-68
2023/04/07 03:59:19;;;;;;;72.13;12.35;;;;;;;;;;5071138;28;20225;-67
2023/04/07 04:01:46;;;;;;;67.82;11.55;;;;;;;;;;5071642;28;20579;-67
2023/04/07 04:04:13;;;;;;;69.93;11.55;;;;;;;;;;5069113;28;20219;-67
2023/04/07 04:06:41;;;;;;;68.25;12.05;;;;;;;;;;5071733;28;20552;-68
2023/04/07 04:09:09;;;;;;;68.50;11.63;;;;;;;;;;5071156;28;20227;-68
2023/04/07 04:11:36;;;;;;;69.57;11.75;;;;;;;;;;5071522;28;20842;-68
2023/04/07 04:14:03;;;;;;;66.03;10.82;;;;;;;;;;5071295;28;20822;-69
2023/04/07 04:16:31;;;;;;;71.97;11.48;;;;;;;;;;5071614;28;20232;-68
2023/04/07 04:18:58;;;;;;;70.25;12.80;;;;;;;;;;5071124;28;20225;-67
2023/04/07 04:21:26;;;;;;;68.53;11.65;;;;;;;;;;5071660;28;20597;-68
2023/04/07 04:23:54;;;;;;;68.50;11.75;;;;;;;;;;5071283;28;20270;-68
2023/04/07 04:26:24;;;;;;;72.05;13.68;;;;;;;;;;5071181;28;20211;-68
2023/04/07 04:28:51;;;;;;;71.13;13.30;;;;;;;;;;5071190;28;20225;-67
2023/04/07 04:31:19;;;;;;;70.55;12.32;;;;;;;;;;5071443;28;20449;-68
2023/04/07 04:33:46;;;;;;;72.15;13.13;;;;;;;;;;5071254;28;20231;-70
2023/04/07 04:36:13;;;;;;;69.13;12.10;;;;;;;;;;5068715;28;20201;-69
2023/04/07 04:38:40;;;;;;;70.90;13.73;;;;;;;;;;5070933;28;20828;-67
2023/04/07 04:41:09;;;;;;;71.67;13.10;;;;;;;;;;5074489;28;20213;-68
2023/04/07 04:43:36;;;;;;;72.10;13.52;;;;;;;;;;5075253;28;20469;-67
2023/04/07 04:46:03;;;;;;;71.80;12.87;;;;;;;;;;5074925;28;20211;-68
2023/04/07 04:48:30;;;;;;;70.40;11.82;;;;;;;;;;5075130;28;20489;-68
2023/04/07 04:50:57;;;;;;;71.20;12.73;;;;;;;;;;5074872;28;20205;-67
2023/04/07 04:53:24;;;;;;;74.25;13.95;;;;;;;;;;5074855;28;20201;-67
2023/04/07 04:55:52;;;;;;;72.53;13.60;;;;;;;;;;5074821;28;20208;-68
2023/04/07 04:58:21;;;;;;;71.83;13.23;;;;;;;;;;5074733;28;20320;-68
2023/04/07 05:00:48;;;;;;;72.20;12.02;;;;;;;;;;5074476;28;20459;-68
2023/04/07 05:03:15;;;;;;;71.28;12.88;;;;;;;;;;5074840;28;20213;-68
2023/04/07 05:05:42;;;;;;;72.00;13.50;;;;;;;;;;5074546;28;20201;-68
2023/04/07 05:08:11;;;;;;;71.28;13.02;;;;;;;;;;5071659;28;20319;-68
2023/04/07 05:10:40;;;;;;;69.25;13.45;;;;;;;;;;5074386;28;20201;-68
2023/04/07 05:13:07;;;;;;;68.95;12.00;;;;;;;;;;5074643;28;20308;-68
2023/04/07 05:15:35;;;;;;;69.90;12.23;;;;;;;;;;5074601;28;20205;-68
2023/04/07 05:18:02;;;;;;;69.28;12.50;;;;;;;;;;5074342;28;20236;-68
2023/04/07 05:20:29;;;;;;;67.95;12.10;;;;;;;;;;5074006;28;20677;-68
2023/04/07 05:22:56;;;;;;;68.88;12.40;;;;;;;;;;5074294;28;20213;-68
2023/04/07 05:25:24;;;;;;;71.63;13.13;;;;;;;;;;5074332;28;20209;-68
2023/04/07 05:27:51;;;;;;;69.03;11.65;;;;;;;;;;5074290;28;20225;-69
2023/04/07 05:30:18;;;;;;;72.30;13.55;;;;;;;;;;5074018;28;20204;-68
2023/04/07 05:32:46;;;;;;;70.33;12.87;;;;;;;;;;5074283;28;20208;-68
2023/04/07 05:35:14;;;;;;;70.28;12.27;;;;;;;;;;5074025;28;20466;-68
2023/04/07 05:37:41;;;;;;;69.10;12.20;;;;;;;;;;5072038;28;20323;-68
2023/04/07 05:40:08;;;;;;;69.18;12.65;;;;;;;;;;5073768;28;20209;-68
2023/04/07 05:42:35;;;;;;;68.50;11.27;;;;;;;;;;5074054;28;20207;-68
2023/04/07 05:45:03;;;;;;;67.97;11.85;;;;;;;;;;5073922;28;20703;-68
2023/04/07 05:47:30;;;;;;;70.43;12.20;;;;;;;;;;5073865;28;20201;-68
2023/04/07 05:49:59;;;;;;;72.90;13.00;;;;;;;;;;5073481;28;20597;-68
2023/04/07 05:52:26;;;;;;;70.53;14.15;;;;;;;;;;5072531;28;20936;-68
2023/04/07 05:54:53;;;;;;;72.55;13.00;;;;;;;;;;5074029;28;20207;-68
2023/04/07 05:57:21;;;;;;;69.78;12.50;;;;;;;;;;5073782;28;20221;-68
2023/04/07 05:59:48;;;;;;;69.75;12.57;;;;;;;;;;5073388;28;20288;-68
2023/04/07 06:02:15;;;;;;;73.38;13.75;;;;;;;;;;5073491;28;20209;-68
2023/04/07 06:04:42;;;;;;;69.17;12.10;;;;;;;;;;5073491;28;20201;-68
2023/04/07 06:07:11;;;;;;;68.88;12.38;;;;;;;;;;5073670;28;20447;-68
2023/04/07 06:09:38;;;;;;;69.50;12.20;;;;;;;;;;5071249;28;20205;-68
2023/04/07 06:12:05;;;;;;;67.47;11.77;;;;;;;;;;5073390;28;20443;-68
2023/04/07 06:14:32;;;;;;;68.70;11.10;;;;;;;;;;5073276;28;20204;-69
2023/04/07 06:17:00;;;;;;;71.32;12.80;;;;;;;;;;5073104;28;20451;-68
2023/04/07 06:19:27;;;;;;;69.00;11.50;;;;;;;;;;5073009;28;20239;-68
2023/04/07 06:21:54;;;;;;;67.40;12.20;;;;;;;;;;5073406;28;20446;-68
2023/04/07 06:24:24;;;;;;;70.07;12.65;;;;;;;;;;5073088;28;20498;-69
2023/04/07 06:26:51;;;;;;;71.78;12.20;;;;;;;;;;5073187;28;20205;-68
2023/04/07 06:29:18;;;;;;;68.27;12.07;;;;;;;;;;5072439;28;20239;-69
2023/04/07 06:31:45;;;;;;;69.30;12.23;;;;;;;;;;5073230;28;20466;-68
2023/04/07 06:34:12;;;;;;;69.93;12.87;;;;;;;;;;5073225;28;20201;-68
2023/04/07 06:36:40;;;;;;;70.47;13.02;;;;;;;;;;5072855;28;20452;-68
2023/04/07 06:39:07;;;;;;;71.07;13.20;;;;;;;;;;5072462;28;20241;-68
2023/04/07 06:41:37;;;;;;;69.75;13.68;;;;;;;;;;5070534;28;20460;-68
2023/04/07 06:44:05;;;;;;;67.80;12.13;;;;;;;;;;5072601;28;20295;-68
2023/04/07 06:46:32;;;;;;;70.30;13.47;;;;;;;;;;5072729;28;20451;-68
2023/04/07 06:48:59;;;;;;;70.53;13.30;;;;;;;;;;5072440;28;20459;-69
2023/04/07 06:51:26;;;;;;;73.47;12.67;;;;;;;;;;5072822;28;20546;-68
2023/04/07 06:53:53;;;;;;;69.47;12.57;;;;;;;;;;5072639;28;20455;-68
2023/04/07 06:56:21;;;;;;;68.37;12.50;;;;;;;;;;5072484;28;20451;-68
2023/04/07 06:58:50;;;;;;;69.80;13.90;;;;;;;;;;5072203;28;20491;-68
2023/04/07 07:01:17;;;;;;;71.97;12.93;;;;;;;;;;5072670;28;20534;-69
2023/04/07 07:03:45;;;;;;;69.20;13.10;;;;;;;;;;5072124;28;20455;-68
2023/04/07 07:06:12;;;;;;;66.77;12.40;;;;;;;;;;5072311;28;20960;-68
2023/04/07 07:08:40;;;;;;;68.03;12.10;;;;;;;;;;5071785;28;20459;-68
2023/04/07 07:11:07;;;;;;;69.17;13.20;;;;;;;;;;5072101;28;20440;-68
2023/04/07 07:13:34;;;;;;;68.73;11.83;;;;;;;;;;5070061;28;20460;-68
2023/04/07 07:16:02;;;;;;;69.33;11.47;;;;;;;;;;5072187;28;20916;-69
2023/04/07 07:18:29;;;;;;;68.07;12.20;;;;;;;;;;5071921;28;20494;-69
2023/04/07 07:20:57;;;;;;;70.60;11.80;;;;;;;;;;5072048;28;20514;-68
2023/04/07 07:23:24;;;;;;;76.20;11.93;;;;;;;;;;5071882;28;20546;-68
2023/04/07 07:25:51;;;;;;;67.10;10.63;;;;;;;;;;5071998;28;20447;-68
2023/04/07 07:28:18;;;;;;;65.67;10.80;;;;;;;;;;5072009;28;20828;-68
2023/04/07 07:30:45;;;;;;;71.13;11.90;;;;;;;;;;5071893;28;20542;-68
2023/04/07 07:33:14;;;;;;;67.60;10.77;;;;;;;;;;5071841;28;20448;-69
2023/04/07 07:35:41;;;;;;;70.17;12.47;;;;;;;;;;5071855;28;20967;-68
2023/04/07 07:38:08;;;;;;;69.60;10.60;;;;;;;;;;5071441;28;21014;-69
2023/04/07 07:40:35;;;;;;;68.17;10.87;;;;;;;;;;5071780;28;20447;-66
2023/04/07 07:43:02;;;;;;;66.60;11.07;;;;;;;;;;5071965;28;20823;-67
2023/04/07 07:45:29;;;;;;;68.07;9.83;;;;;;;;;;5069724;28;20459;-66
2023/04/07 07:47:56;;;;;;;64.93;9.67;;;;;;;;;;5071728;28;20558;-69
2023/04/07 07:50:25;;;;;;;66.17;10.70;;;;;;;;;;5071368;28;20455;-67
2023/04/07 07:52:53;;;;;;;72.00;11.53;;;;;;;;;;5071589;28;20823;-67
2023/04/07 07:55:20;;;;;;;67.57;10.70;;;;;;;;;;5071861;28;20450;-66
2023/04/07 07:57:47;;;;;;;69.23;10.60;;;;;;;;;;5071568;28;20484;-66
2023/04/07 08:00:14;;;;;;;68.07;11.53;;;;;;;;;;5071332;28;20451;-67
2023/04/07 08:02:42;;;;;;;66.60;11.63;;;;;;;;;;5071536;28;20458;-66
2023/04/07 08:05:09;;;;;;;66.30;10.97;;;;;;;;;;5071298;28;20453;-67
2023/04/07 08:07:37;;;;;;;65.07;10.30;;;;;;;;;;5071288;28;20989;-66
2023/04/07 08:10:05;;;;;;;65.47;10.07;;;;;;;;;;5071332;28;20440;-67
2023/04/07 08:12:32;;;;;;;66.30;11.27;;;;;;;;;;5071682;28;20451;-66
2023/04/07 08:14:59;;;;;;;67.20;10.80;;;;;;;;;;5073263;28;20447;-66
2023/04/07 08:17:26;;;;;;;68.17;9.97;;;;;;;;;;5073350;28;20944;-66
2023/04/07 08:19:53;;;;;;;63.30;9.77;;;;;;;;;;5074885;28;20451;-66
2023/04/07 08:22:20;;;;;;;67.17;10.00;;;;;;;;;;5075682;28;20447;-66
2023/04/07 08:24:49;;;;;;;70.37;9.67;;;;;;;;;;5075482;28;20473;-66
2023/04/07 08:27:16;;;;;;;64.13;8.70;;;;;;;;;;5075463;28;20469;-67
2023/04/07 08:29:43;;;;;;;68.17;8.67;;;;;;;;;;5075149;28;20449;-69
2023/04/07 08:32:10;;;;;;;62.37;8.00;;;;;;;;;;5075140;28;20455;-69
2023/04/07 08:34:37;;;;;;;63.53;8.30;;;;;;;;;;5075204;28;20447;-69
2023/04/07 08:37:04;;;;;;;63.80;9.00;;;;;;;;;;5075364;28;20448;-69
2023/04/07 08:39:32;;;;;;;62.73;8.17;;;;;;;;;;5074539;28;20483;-68
2023/04/07 08:42:01;;;;;;;63.30;8.20;;;;;;;;;;5075103;28;20982;-69
2023/04/07 08:44:28;;;;;;;63.80;8.80;;;;;;;;;;5074879;28;20955;-69
2023/04/07 08:46:58;;;;;;;62.77;7.60;;;;;;;;;;5054788;28;21020;-69
2023/04/07 08:49:26;;;;;;;62.77;7.53;;;;;;;;;;5069890;28;20463;-69
2023/04/07 08:51:54;;;;;;;62.00;8.23;;;;;;;;;;5075129;28;20443;-68
2023/04/07 08:54:22;;;;;;;62.17;7.67;;;;;;;;;;5074872;28;20964;-69
2023/04/07 08:56:49;;;;;;;64.27;8.70;;;;;;;;;;5074747;28;20951;-69
2023/04/07 08:59:21;;;;;;;61.20;6.47;;;;;;;;;;5073947;28;20493;-69
2023/04/07 09:01:49;;;;;;;64.97;7.30;;;;;;;;;;5074974;28;20447;-68
2023/04/07 09:04:17;;;;;;;63.80;7.60;;;;;;;;;;5074783;28;20469;-69
2023/04/07 09:06:44;;;;;;;67.30;9.70;;;;;;;;;;5074737;28;21076;-69
2023/04/07 09:09:11;;;;;;;64.67;7.07;;;;;;;;;;5074266;28;20470;-69
2023/04/07 09:11:39;;;;;;;63.27;6.80;;;;;;;;;;5074535;28;20461;-69
2023/04/07 09:14:07;;;;;;;62.37;6.90;;;;;;;;;;5074341;28;20549;-69
2023/04/07 09:16:35;;;;;;;63.57;7.67;;;;;;;;;;5074662;28;20447;-69
2023/04/07 09:19:02;;;;;;;64.43;8.17;;;;;;;;;;5073934;28;20490;-69
2023/04/07 09:21:47;;;;;;;62.60;7.70;;;;;;;;;;5072233;28;20469;-69
2023/04/07 09:24:21;;;;;;;62.60;8.33;;;;;;;;;;5074129;28;20458;-68
2023/04/07 09:26:48;;;;;;;62.70;8.40;;;;;;;;;;5073997;28;20501;-66
2023/04/07 09:29:19;;;;;;;61.20;7.20;;;;;;;;;;5074021;28;20463;-67
2023/04/07 09:31:49;;;;;;;63.97;7.70;;;;;;;;;;5074189;28;20504;-67
2023/04/07 09:34:25;;;;;;;62.70;8.70;;;;;;;;;;5074312;28;20443;-66
2023/04/07 09:36:52;;;;;;;65.80;8.60;;;;;;;;;;5073781;28;20478;-66
2023/04/07 09:39:19;;;;;;;65.27;9.13;;;;;;;;;;5073597;28;20487;-66
2023/04/07 09:41:46;;;;;;;65.10;9.27;;;;;;;;;;5073959;28;20522;-66
2023/04/07 09:44:13;;;;;;;64.37;8.60;;;;;;;;;;5074072;28;20450;-66
2023/04/07 09:46:50;;;;;;;62.30;7.90;;;;;;;;;;5073989;28;20447;-66
2023/04/07 09:49:19;;;;;;;62.77;8.80;;;;;;;;;;5073322;28;20475;-66
2023/04/07 09:51:53;;;;;;;64.40;7.73;;;;;;;;;;5071878;28;20546;-66
2023/04/07 09:54:32;;;;;;;62.47;8.10;;;;;;;;;;5073763;28;20943;-66
2023/04/07 09:57:00;;;;;;;63.40;8.00;;;;;;;;;;5074016;28;20500;-66
2023/04/07 09:59:28;;;;;;;64.40;9.13;;;;;;;;;;5073233;28;21009;-66
2023/04/07 10:01:56;;;;;;;64.80;8.87;;;;;;;;;;5073433;28;20451;-66
2023/04/07 10:04:24;;;;;;;63.07;8.93;;;;;;;;;;5073754;28;20451;-66
2023/04/07 10:06:53;;;;;;;62.27;8.17;;;;;;;;;;5073708;28;20470;-66
2023/04/07 10:09:20;;;;;;;63.67;8.30;;;;;;;;;;5073151;28;20874;-66
2023/04/07 10:11:47;;;;;;;62.80;7.70;;;;;;;;;;5073476;28;20508;-66
2023/04/07 10:14:15;;;;;;;65.70;8.13;;;;;;;;;;5073231;28;20457;-67
2023/04/07 10:16:43;;;;;;;61.80;8.03;;;;;;;;;;5073516;28;20440;-67
2023/04/07 10:19:11;;;;;;;62.57;8.40;;;;;;;;;;5072916;28;20908;-67
2023/04/07 10:21:41;;;;;;;66.40;8.50;;;;;;;;;;5073150;28;20443;-68
2023/04/07 10:24:16;;;;;;;64.47;9.23;;;;;;;;;;5071066;28;20463;-67
2023/04/07 10:26:43;;;;;;;63.33;7.83;;;;;;;;;;5073030;28;20462;-67
2023/04/07 10:29:12;;;;;;;66.20;10.67;;;;;;;;;;5072754;28;20475;-67
2023/04/07 10:31:39;;;;;;;61.57;7.50;;;;;;;;;;5073236;28;20447;-67
2023/04/07 10:34:06;;;;;;;62.30;7.80;;;;;;;;;;5073117;28;20450;-67
2023/04/07 10:36:35;;;;;;;62.43;8.30;;;;;;;;;;5072883;28;20466;-67
2023/04/07 10:39:21;;;;;;;62.77;8.20;;;;;;;;;;5071820;28;20595;-67
2023/04/07 10:41:50;;;;;;;63.47;8.30;;;;;;;;;;5073028;28;20447;-67
2023/04/07 10:44:36;;;;;;;64.47;9.03;;;;;;;;;;5072507;28;20479;-68
2023/04/07 10:47:04;;;;;;;63.00;7.97;;;;;;;;;;5072442;28;20829;-66
2023/04/07 10:49:32;;;;;;;64.20;8.00;;;;;;;;;;5072274;28;20463;-71
2023/04/07 10:52:15;;;;;;;63.03;8.20;;;;;;;;;;5072312;28;20447;-70
2023/04/07 10:54:43;;;;;;;62.43;7.00;;;;;;;;;;5060025;28;20466;-67
2023/04/07 10:57:14;;;;;;;62.50;6.70;;;;;;;;;;5072845;28;20443;-68
2023/04/07 10:59:45;;;;;;;63.93;7.30;;;;;;;;;;5072332;28;20475;-68
2023/04/07 11:02:27;;;;;;;65.63;6.70;;;;;;;;;;5072452;28;20451;-68
2023/04/07 11:04:55;;;;;;;60.47;6.33;;;;;;;;;;5070511;28;20455;-68
2023/04/07 11:07:42;;;;;;;61.70;6.00;;;;;;;;;;5072346;28;20454;-69
2023/04/07 11:10:12;;;;;;;61.17;6.70;;;;;;;;;;5072206;28;20443;-67
2023/04/07 11:12:39;;;;;;;62.50;7.50;;;;;;;;;;5072375;28;20439;-68
2023/04/07 11:15:17;;;;;;;63.10;7.00;;;;;;;;;;5072637;28;20443;-69
2023/04/07 11:17:44;;;;;;;61.67;7.00;;;;;;;;;;5072499;28;20486;-70
2023/04/07 11:20:11;;;;;;;62.97;7.00;;;;;;;;;;5072076;28;20490;-68
2023/04/07 11:22:38;;;;;;;62.40;6.87;;;;;;;;;;5072301;28;20522;-68
2023/04/07 11:25:20;;;;;;;62.37;7.17;;;;;;;;;;5072610;28;20456;-67
2023/04/07 11:27:48;;;;;;;65.90;6.93;;;;;;;;;;5072384;28;20467;-67
2023/04/07 11:30:16;;;;;;;62.03;6.47;;;;;;;;;;5071990;28;20496;-67
2023/04/07 11:32:47;;;;;;;62.20;6.90;;;;;;;;;;5072128;28;20943;-69
2023/04/07 11:35:15;;;;;;;61.20;6.60;;;;;;;;;;5072190;28;20451;-69
2023/04/07 11:37:42;;;;;;;61.60;6.37;;;;;;;;;;5071977;28;20892;-67
2023/04/07 11:40:10;;;;;;;62.37;7.23;;;;;;;;;;5071854;28;20536;-67
2023/04/07 11:42:40;;;;;;;60.93;6.07;;;;;;;;;;5072168;28;20443;-68
2023/04/07 11:45:16;;;;;;;61.57;6.07;;;;;;;;;;5071984;28;20483;-70
2023/04/07 11:47:43;;;;;;;60.97;5.63;;;;;;;;;;5072010;28;20844;-68
2023/04/07 11:50:11;;;;;;;59.80;5.57;;;;;;;;;;5071837;28;20478;-68
2023/04/07 11:52:41;;;;;;;60.40;5.30;;;;;;;;;;5072064;28;20444;-67
2023/04/07 11:55:17;;;;;;;61.37;5.63;;;;;;;;;;5071785;28;20447;-68
2023/04/07 11:57:45;;;;;;;59.80;4.80;;;;;;;;;;5071926;28;20467;-68
2023/04/07 12:00:14;;;;;;;60.27;5.10;;;;;;;;;;5071304;28;20506;-67
2023/04/07 12:02:42;;;;;;;59.60;4.23;;;;;;;;;;5071636;28;20524;-69
2023/04/07 12:05:10;;;;;;;65.87;7.73;;;;;;;;;;5071994;28;20466;-67
2023/04/07 12:07:37;;;;;;;60.27;5.13;;;;;;;;;;5071835;28;20506;-70
2023/04/07 12:10:19;;;;;;;61.80;6.33;;;;;;;;;;5071360;28;20454;-68
2023/04/07 12:12:47;;;;;;;62.30;6.40;;;;;;;;;;5071726;28;20461;-68
2023/04/07 12:15:15;;;;;;;62.10;6.50;;;;;;;;;;5071588;28;20509;-67
2023/04/07 12:17:46;;;;;;;62.27;6.10;;;;;;;;;;5071539;28;20968;-67
2023/04/07 12:20:13;;;;;;;63.80;6.47;;;;;;;;;;5071517;28;20475;-68
2023/04/07 12:22:41;;;;;;;64.00;6.80;;;;;;;;;;5071606;28;20447;-69
2023/04/07 12:25:08;;;;;;;62.07;6.70;;;;;;;;;;5071498;28;20455;-69
2023/04/07 12:27:35;;;;;;;62.90;6.57;;;;;;;;;;5071444;28;20473;-68
2023/04/07 12:30:04;;;;;;;60.40;6.07;;;;;;;;;;5071401;28;20966;-69
2023/04/07 12:32:32;;;;;;;62.20;6.80;;;;;;;;;;5071711;28;20447;-69
2023/04/07 12:34:59;;;;;;;60.47;6.17;;;;;;;;;;5071687;28;20504;-69
2023/04/07 12:37:27;;;;;;;61.07;6.40;;;;;;;;;;5071553;28;20482;-69
2023/04/07 12:39:54;;;;;;;63.40;6.73;;;;;;;;;;5071096;28;20541;-69
2023/04/07 12:42:21;;;;;;;62.40;7.47;;;;;;;;;;5071347;28;20510;-69
2023/04/07 12:44:48;;;;;;;60.10;5.90;;;;;;;;;;5071666;28;20471;-68
2023/04/07 12:47:17;;;;;;;62.00;6.73;;;;;;;;;;5071474;28;20453;-68
2023/04/07 12:49:44;;;;;;;62.47;6.43;;;;;;;;;;5071140;28;20475;-68
2023/04/07 12:52:11;;;;;;;63.30;5.90;;;;;;;;;;5071239;28;20447;-68
2023/04/07 12:54:39;;;;;;;61.20;5.60;;;;;;;;;;5071262;28;20454;-68
2023/04/07 12:57:06;;;;;;;60.60;6.17;;;;;;;;;;5071229;28;20455;-68
2023/04/07 12:59:33;;;;;;;60.03;5.67;;;;;;;;;;5070708;28;20613;-70
2023/04/07 13:02:00;;;;;;;60.53;5.73;;;;;;;;;;5074567;28;20439;-68
2023/04/07 13:04:30;;;;;;;62.80;6.20;;;;;;;;;;5074905;28;20529;-68
2023/04/07 13:06:57;;;;;;;60.97;5.83;;;;;;;;;;5074952;28;20482;-67
2023/04/07 13:09:25;;;;;;;61.17;6.10;;;;;;;;;;5074376;28;20474;-66
2023/04/07 13:11:52;;;;;;;62.73;7.27;;;;;;;;;;5074994;28;20818;-68
2023/04/07 13:14:19;;;;;;;61.57;6.63;;;;;;;;;;5074903;28;20454;-69
2023/04/07 13:16:46;;;;;;;65.20;7.40;;;;;;;;;;5074904;28;20453;-68
2023/04/07 13:19:13;;;;;;;64.80;7.37;;;;;;;;;;5074277;28;20467;-68
2023/04/07 13:21:42;;;;;;;64.97;8.13;;;;;;;;;;5074725;28;20443;-68
2023/04/07 13:24:09;;;;;;;63.30;7.43;;;;;;;;;;5074558;28;20956;-68
2023/04/07 13:26:36;;;;;;;63.60;7.30;;;;;;;;;;5074860;28;20916;-68
2023/04/07 13:29:03;;;;;;;61.80;6.63;;;;;;;;;;5074259;28;20473;-68
2023/04/07 13:31:30;;;;;;;62.40;7.13;;;;;;;;;;5074426;28;20455;-68
2023/04/07 13:33:57;;;;;;;59.77;5.40;;;;;;;;;;5074486;28;20451;-68
2023/04/07 13:36:27;;;;;;;62.90;6.63;;;;;;;;;;5074306;28;20451;-69
2023/04/07 13:38:55;;;;;;;61.33;5.00;;;;;;;;;;5074179;28;20506;-68
2023/04/07 13:41:22;;;;;;;60.77;5.30;;;;;;;;;;5074343;28;20526;-68
2023/04/07 13:43:49;;;;;;;63.00;5.40;;;;;;;;;;5074171;28;20455;-68
2023/04/07 13:46:17;;;;;;;59.93;5.20;;;;;;;;;;5074093;28;20963;-69
2023/04/07 13:48:44;;;;;;;59.23;4.50;;;;;;;;;;5073742;28;20561;-69
2023/04/07 13:51:11;;;;;;;60.57;4.80;;;;;;;;;;5074010;28;20447;-68
2023/04/07 13:53:38;;;;;;;60.57;5.13;;;;;;;;;;5073969;28;20539;-70
2023/04/07 13:56:08;;;;;;;62.73;5.07;;;;;;;;;;5073950;28;20453;-68
2023/04/07 13:58:35;;;;;;;59.60;4.93;;;;;;;;;;5073621;28;20846;-69
2023/04/07 14:01:03;;;;;;;60.23;5.23;;;;;;;;;;5073830;28;20487;-69
2023/04/07 14:03:30;;;;;;;59.33;4.80;;;;;;;;;;5073693;28;20443;-69
2023/04/07 14:06:00;;;;;;;60.47;5.00;;;;;;;;;;5074048;28;20449;-69
2023/04/07 14:08:27;;;;;;;61.30;5.30;;;;;;;;;;5073549;28;20511;-69
2023/04/07 14:10:54;;;;;;;61.43;5.10;;;;;;;;;;5073739;28;20443;-69
2023/04/07 14:13:23;;;;;;;59.13;4.83;;;;;;;;;;5072735;28;20517;-69
2023/04/07 14:15:52;;;;;;;60.03;5.00;;;;;;;;;;5073691;28;20451;-69
2023/04/07 14:18:19;;;;;;;59.57;5.03;;;;;;;;;;5073324;28;20615;-69
2023/04/07 14:20:46;;;;;;;63.03;5.93;;;;;;;;;;5073415;28;20515;-68
2023/04/07 14:23:13;;;;;;;62.17;5.60;;;;;;;;;;5073398;28;20447;-70
2023/04/07 14:25:40;;;;;;;64.00;5.07;;;;;;;;;;5073489;28;20454;-69
2023/04/07 14:28:08;;;;;;;63.67;5.67;;;;;;;;;;5073269;28;20521;-69